createdAt,value
2022-11-18T00:00:56.241Z,86.36
2022-11-18T00:03:23.051Z,86.58
2022-11-18T00:05:56.794Z,86.52
2022-11-18T00:08:24.832Z,86.52
2022-11-18T00:10:51.577Z,86.54
2022-11-18T00:13:37.435Z,87.00
2022-11-18T00:16:12.970Z,87.44
2022-11-18T00:18:39.748Z,87.70
2022-11-18T00:21:09.132Z,87.92
2022-11-18T00:23:35.996Z,88.10
2022-11-18T00:26:08.649Z,88.37
2022-11-18T00:28:35.216Z,88.43
2022-11-18T00:31:06.956Z,88.13
2022-11-18T00:33:33.608Z,88.31
2022-11-18T00:36:00.183Z,88.13
2022-11-18T00:38:27.039Z,87.71
2022-11-18T00:41:01.493Z,87.80
2022-11-18T00:43:28.146Z,88.02
2022-11-18T00:45:54.591Z,87.82
2022-11-18T00:48:22.186Z,87.62
2022-11-18T00:50:50.018Z,87.40
2022-11-18T00:53:17.664Z,87.51
2022-11-18T00:55:44.462Z,87.05
2022-11-18T00:58:14.215Z,87.27
2022-11-18T01:00:46.282Z,87.27
2022-11-18T01:03:12.985Z,87.47
2022-11-18T01:05:39.937Z,87.10
2022-11-18T01:08:08.487Z,87.20
2022-11-18T01:10:35.506Z,87.34
2022-11-18T01:13:20.058Z,87.22
2022-11-18T01:15:55.171Z,87.50
2022-11-18T01:18:24.924Z,87.41
2022-11-18T01:20:52.214Z,87.27
2022-11-18T01:23:20.248Z,87.00
2022-11-18T01:25:49.236Z,87.37
2022-11-18T01:28:21.983Z,87.47
2022-11-18T01:30:49.949Z,87.52
2022-11-18T01:33:16.502Z,87.46
2022-11-18T01:35:44.282Z,87.14
2022-11-18T01:38:12.491Z,86.93
2022-11-18T01:40:39.193Z,87.09
2022-11-18T01:43:20.748Z,87.46
2022-11-18T01:45:49.576Z,87.37
2022-11-18T01:48:20.874Z,87.86
2022-11-18T01:51:02.425Z,87.69
2022-11-18T01:53:36.105Z,88.13
2022-11-18T01:56:08.175Z,87.93
2022-11-18T01:58:39.201Z,87.92
2022-11-18T02:01:07.505Z,87.94
2022-11-18T02:03:34.926Z,87.60
2022-11-18T02:06:03.395Z,87.85
2022-11-18T02:08:30.788Z,87.58
2022-11-18T02:10:57.359Z,87.59
2022-11-18T02:13:24.334Z,87.69
2022-11-18T02:16:10.217Z,87.77
2022-11-18T02:18:50.601Z,87.73
2022-11-18T02:21:38.874Z,87.62
2022-11-18T02:24:41.249Z,87.49
2022-11-18T02:27:45.361Z,87.40
2022-11-18T02:30:15.785Z,87.28
2022-11-18T02:32:49.269Z,86.67
2022-11-18T02:35:24.571Z,86.70
2022-11-18T02:37:58.926Z,86.51
2022-11-18T02:40:36.663Z,86.46
2022-11-18T02:43:11.565Z,86.52
2022-11-18T02:45:41.795Z,86.55
2022-11-18T02:48:11.475Z,86.70
2022-11-18T02:50:41.970Z,86.77
2022-11-18T02:53:13.516Z,87.12
2022-11-18T02:55:41.385Z,86.73
2022-11-18T02:58:08.998Z,86.56
2022-11-18T03:00:36.211Z,86.84
2022-11-18T03:03:25.086Z,86.47
2022-11-18T03:06:04.329Z,87.07
2022-11-18T03:08:34.080Z,86.46
2022-11-18T03:11:12.908Z,86.73
2022-11-18T03:14:01.466Z,86.84
2022-11-18T03:16:36.425Z,86.99
2022-11-18T03:19:18.832Z,86.54
2022-11-18T03:22:03.167Z,86.40
2022-11-18T03:24:33.478Z,85.93
2022-11-18T03:27:13.840Z,85.20
2022-11-18T03:29:48.389Z,85.44
2022-11-18T03:32:24.104Z,85.60
2022-11-18T03:34:57.362Z,86.15
2022-11-18T03:37:26.230Z,87.00
2022-11-18T03:39:56.659Z,87.02
2022-11-18T03:42:31.354Z,87.23
2022-11-18T03:45:03.609Z,87.40
2022-11-18T03:47:35.841Z,87.71
2022-11-18T03:50:12.724Z,88.25
2022-11-18T03:52:40.404Z,87.73
2022-11-18T03:55:14.322Z,87.68
2022-11-18T03:57:55.695Z,87.99
2022-11-18T04:00:22.678Z,87.67
2022-11-18T04:02:50.450Z,88.09
2022-11-18T04:05:19.242Z,88.18
2022-11-18T04:07:59.717Z,87.29
2022-11-18T04:10:32.625Z,87.08
2022-11-18T04:13:10.066Z,86.82
2022-11-18T04:15:38.088Z,86.63
2022-11-18T04:18:04.710Z,86.71
2022-11-18T04:20:32.375Z,86.32
2022-11-18T04:22:58.792Z,86.26
2022-11-18T04:25:25.510Z,85.82
2022-11-18T04:27:52.291Z,85.47
2022-11-18T04:30:19.700Z,85.65
2022-11-18T04:32:46.289Z,85.59
2022-11-18T04:35:13.273Z,85.42
2022-11-18T04:37:39.696Z,85.26
2022-11-18T04:40:06.789Z,85.18
2022-11-18T04:42:33.224Z,84.73
2022-11-18T04:44:59.742Z,84.96
2022-11-18T04:47:26.395Z,85.21
2022-11-18T04:49:52.854Z,85.24
2022-11-18T04:52:19.321Z,84.63
2022-11-18T04:54:46.646Z,84.64
2022-11-18T04:57:13.333Z,84.92
2022-11-18T04:59:40.068Z,85.15
2022-11-18T05:02:06.618Z,85.06
2022-11-18T05:04:34.641Z,85.12
2022-11-18T05:07:03.400Z,85.40
2022-11-18T05:09:31.962Z,84.88
2022-11-18T05:12:17.932Z,85.35
2022-11-18T05:14:49.712Z,85.77
2022-11-18T05:17:18.189Z,85.75
2022-11-18T05:19:44.644Z,85.31
2022-11-18T05:22:11.117Z,85.81
2022-11-18T05:24:37.566Z,85.38
2022-11-18T05:27:04.010Z,85.61
2022-11-18T05:29:30.503Z,85.79
2022-11-18T05:31:56.950Z,85.71
2022-11-18T05:34:23.452Z,85.24
2022-11-18T05:36:49.874Z,84.73
2022-11-18T05:39:16.690Z,85.08
2022-11-18T05:42:01.651Z,85.14
2022-11-18T05:44:28.111Z,84.98
2022-11-18T05:46:55.200Z,84.31
2022-11-18T05:49:21.707Z,84.81
2022-11-18T05:51:48.170Z,85.05
2022-11-18T05:54:17.760Z,85.26
2022-11-18T05:56:45.500Z,84.52
2022-11-18T05:59:13.841Z,85.41
2022-11-18T06:01:51.687Z,84.66
2022-11-18T06:04:37.339Z,85.20
2022-11-18T06:07:38.134Z,85.18
2022-11-18T06:10:06.264Z,85.14
2022-11-18T06:12:38.776Z,84.52
2022-11-18T06:15:13.031Z,84.03
2022-11-18T06:18:08.789Z,84.41
2022-11-18T06:20:38.085Z,84.80
2022-11-18T06:23:04.764Z,84.74
2022-11-18T06:25:32.483Z,84.48
2022-11-18T06:28:02.178Z,84.38
2022-11-18T06:30:28.647Z,84.61
2022-11-18T06:32:55.062Z,84.75
2022-11-18T06:35:21.508Z,84.55
2022-11-18T06:37:48.090Z,84.42
2022-11-18T06:40:14.557Z,84.01
2022-11-18T06:42:59.389Z,84.72
2022-11-18T06:45:25.935Z,84.54
2022-11-18T06:47:56.939Z,84.58
2022-11-18T06:50:23.543Z,84.28
2022-11-18T06:52:49.957Z,84.76
2022-11-18T06:55:16.519Z,84.79
2022-11-18T06:57:43.000Z,85.00
2022-11-18T07:00:10.061Z,84.93
2022-11-18T07:02:36.897Z,84.91
2022-11-18T07:05:04.801Z,84.66
2022-11-18T07:07:31.391Z,85.31
2022-11-18T07:09:57.862Z,85.65
2022-11-18T07:12:24.292Z,85.09
2022-11-18T07:14:50.719Z,85.05
2022-11-18T07:17:17.141Z,85.06
2022-11-18T07:19:43.582Z,84.81
2022-11-18T07:22:10.021Z,84.89
2022-11-18T07:24:37.894Z,84.57
2022-11-18T07:27:04.378Z,84.37
2022-11-18T07:29:30.814Z,84.18
2022-11-18T07:31:57.262Z,84.19
2022-11-18T07:34:23.711Z,84.19
2022-11-18T07:36:50.141Z,83.86
2022-11-18T07:39:16.859Z,84.13
2022-11-18T07:41:43.528Z,84.41
2022-11-18T07:44:13.310Z,83.92
2022-11-18T07:46:39.729Z,84.21
2022-11-18T07:49:08.888Z,84.11
2022-11-18T07:51:38.115Z,84.45
2022-11-18T07:54:09.249Z,83.93
2022-11-18T07:56:35.666Z,84.08
2022-11-18T07:59:02.106Z,83.71
2022-11-18T08:01:29.729Z,83.98
2022-11-18T08:03:58.108Z,83.86
2022-11-18T08:06:24.644Z,83.46
2022-11-18T08:08:51.147Z,83.66
2022-11-18T08:11:22.709Z,84.02
2022-11-18T08:13:50.225Z,83.51
2022-11-18T08:16:19.744Z,83.31
2022-11-18T08:18:47.014Z,83.90
2022-11-18T08:21:14.790Z,83.19
2022-11-18T08:23:42.608Z,83.15
2022-11-18T08:26:10.543Z,83.22
2022-11-18T08:28:37.077Z,83.36
2022-11-18T08:31:21.800Z,83.19
2022-11-18T08:33:48.269Z,83.06
2022-11-18T08:36:17.509Z,82.79
2022-11-18T08:38:44.340Z,83.40
2022-11-18T08:41:21.382Z,83.26
2022-11-18T08:43:47.811Z,83.44
2022-11-18T08:46:14.316Z,83.25
2022-11-18T08:48:40.758Z,83.74
2022-11-18T08:51:11.289Z,83.47
2022-11-18T08:53:37.805Z,83.59
2022-11-18T08:56:04.376Z,83.42
2022-11-18T08:58:31.422Z,84.01
2022-11-18T09:00:57.836Z,83.77
2022-11-18T09:03:24.823Z,83.44
2022-11-18T09:05:51.264Z,83.46
2022-11-18T09:08:17.713Z,83.23
2022-11-18T09:10:44.170Z,83.29
2022-11-18T09:13:47.809Z,83.16
2022-11-18T09:16:01.911Z,83.68
2022-11-18T09:18:29.219Z,83.64
2022-11-18T09:21:04.829Z,83.90
2022-11-18T09:23:33.171Z,83.63
2022-11-18T09:26:08.017Z,84.00
2022-11-18T09:28:35.300Z,83.91
2022-11-18T09:31:07.935Z,83.65
2022-11-18T09:33:35.220Z,83.36
2022-11-18T09:36:01.890Z,82.63
2022-11-18T09:38:32.382Z,83.14
2022-11-18T09:41:06.024Z,83.62
2022-11-18T09:43:53.435Z,83.65
2022-11-18T09:46:47.467Z,83.97
2022-11-18T09:49:34.099Z,83.38
2022-11-18T09:52:23.875Z,83.48
2022-11-18T09:54:50.725Z,84.04
2022-11-18T09:57:20.726Z,83.95
2022-11-18T09:59:47.307Z,82.65
2022-11-18T10:02:13.809Z,83.22
2022-11-18T10:04:40.325Z,83.51
2022-11-18T10:07:21.822Z,83.55
2022-11-18T10:09:54.054Z,83.68
2022-11-18T10:12:35.473Z,83.99
2022-11-18T10:15:19.597Z,84.01
2022-11-18T10:18:07.778Z,83.03
2022-11-18T10:21:00.879Z,82.92
2022-11-18T10:23:50.642Z,83.32
2022-11-18T10:26:32.366Z,82.31
2022-11-18T10:28:58.895Z,82.68
2022-11-18T10:31:25.337Z,83.46
2022-11-18T10:34:00.296Z,82.67
2022-11-18T10:36:34.078Z,82.59
2022-11-18T10:39:09.375Z,82.44
2022-11-18T10:41:43.163Z,83.54
2022-11-18T10:44:32.570Z,82.82
2022-11-18T10:47:20.926Z,82.87
2022-11-18T10:49:47.359Z,83.16
2022-11-18T10:52:15.249Z,83.47
2022-11-18T10:54:42.644Z,82.47
2022-11-18T10:57:21.622Z,82.23
2022-11-18T10:59:56.897Z,81.95
2022-11-18T11:02:26.538Z,82.09
2022-11-18T11:04:53.706Z,82.96
2022-11-18T11:07:32.790Z,82.60
2022-11-18T11:10:12.605Z,83.68
2022-11-18T11:12:47.097Z,83.44
2022-11-18T11:15:19.195Z,82.75
2022-11-18T11:18:12.175Z,84.12
2022-11-18T11:20:38.895Z,83.52
2022-11-18T11:23:17.716Z,83.12
2022-11-18T11:29:02.906Z,83.57
2022-11-18T11:31:56.956Z,83.84
2022-11-18T11:34:51.943Z,83.06
2022-11-18T11:37:29.050Z,82.61
2022-11-18T11:40:21.498Z,83.81
2022-11-18T11:43:02.375Z,84.43
2022-11-18T11:46:07.474Z,83.88
2022-11-18T11:48:41.731Z,84.26
2022-11-18T11:51:20.691Z,84.36
2022-11-18T11:53:53.148Z,84.09
2022-11-18T11:56:38.144Z,83.78
2022-11-18T11:59:24.870Z,84.05
2022-11-18T12:02:12.990Z,83.45
2022-11-18T12:04:42.339Z,83.37
2022-11-18T12:07:16.794Z,83.94
2022-11-18T12:10:25.095Z,83.48
2022-11-18T12:13:02.065Z,83.16
2022-11-18T12:15:55.878Z,83.55
2022-11-18T12:18:41.394Z,84.18
2022-11-18T12:21:07.863Z,83.61
2022-11-18T12:23:34.402Z,83.45
2022-11-18T12:26:06.484Z,83.07
2022-11-18T12:28:43.075Z,83.75
2022-11-18T12:31:15.613Z,83.95
2022-11-18T12:33:52.471Z,83.29
2022-11-18T12:36:45.094Z,82.94
2022-11-18T12:39:23.939Z,81.94
2022-11-18T12:42:08.847Z,82.70
2022-11-18T12:44:37.234Z,82.68
2022-11-18T12:47:04.551Z,83.53
2022-11-18T12:49:30.919Z,82.40
2022-11-18T12:51:59.581Z,84.15
2022-11-18T12:54:31.297Z,84.06
2022-11-18T12:56:59.552Z,83.58
2022-11-18T12:59:30.761Z,83.64
2022-11-18T13:02:25.104Z,82.63
2022-11-18T13:05:08.593Z,81.88
2022-11-18T13:08:02.343Z,83.01
2022-11-18T13:10:32.780Z,83.86
2022-11-18T13:12:59.853Z,83.52
2022-11-18T13:15:45.186Z,83.12
2022-11-18T13:18:17.284Z,83.63
2022-11-18T13:20:53.779Z,82.85
2022-11-18T13:23:49.862Z,83.30
2022-11-18T13:26:32.818Z,83.14
2022-11-18T13:29:26.652Z,84.02
2022-11-18T13:32:15.154Z,83.97
2022-11-18T13:34:50.609Z,83.80
2022-11-18T13:37:28.939Z,83.75
2022-11-18T13:39:55.947Z,82.98
2022-11-18T13:42:27.545Z,82.53
2022-11-18T13:44:57.449Z,82.76
2022-11-18T13:47:31.368Z,84.59
2022-11-18T13:50:11.511Z,83.21
2022-11-18T13:52:51.400Z,84.19
2022-11-18T13:55:26.019Z,83.12
2022-11-18T13:58:06.265Z,82.99
2022-11-18T14:00:35.727Z,83.03
2022-11-18T14:03:28.794Z,82.91
2022-11-18T14:05:56.884Z,83.12
2022-11-18T14:08:31.760Z,83.24
2022-11-18T14:10:58.967Z,83.35
2022-11-18T14:13:33.092Z,83.74
2022-11-18T14:16:02.272Z,82.71
2022-11-18T14:18:32.779Z,83.24
2022-11-18T14:21:00.616Z,82.84
2022-11-18T14:23:36.134Z,82.28
2022-11-18T14:26:07.235Z,81.99
2022-11-18T14:28:37.113Z,81.80
2022-11-18T14:31:12.372Z,82.72
2022-11-18T14:33:39.358Z,82.05
2022-11-18T14:36:15.347Z,82.36
2022-11-18T14:39:11.317Z,81.48
2022-11-18T14:41:48.763Z,82.15
2022-11-18T14:44:16.035Z,82.50
2022-11-18T14:46:46.197Z,82.46
2022-11-18T14:49:15.403Z,82.09
2022-11-18T14:51:42.133Z,81.79
2022-11-18T14:54:12.819Z,82.93
2022-11-18T14:56:39.622Z,82.90
2022-11-18T14:59:06.111Z,81.39
2022-11-18T15:01:32.584Z,82.41
2022-11-18T15:03:59.064Z,81.49
2022-11-18T15:06:25.646Z,81.92
2022-11-18T15:08:55.516Z,82.34
2022-11-18T15:11:22.029Z,82.04
2022-11-18T15:13:48.823Z,82.06
2022-11-18T15:16:21.150Z,82.18
2022-11-18T15:18:50.405Z,82.84
2022-11-18T15:21:17.712Z,82.94
2022-11-18T15:23:44.851Z,82.43
2022-11-18T15:26:19.353Z,83.17
2022-11-18T15:28:47.594Z,82.64
2022-11-18T15:31:14.714Z,80.47
2022-11-18T15:33:41.592Z,81.79
2022-11-18T15:36:19.466Z,82.26
2022-11-18T15:38:46.365Z,82.59
2022-11-18T15:41:23.670Z,82.66
2022-11-18T15:43:50.955Z,83.13
2022-11-18T15:46:19.399Z,82.98
2022-11-18T15:48:46.851Z,82.21
2022-11-18T15:51:13.829Z,80.01
2022-11-18T15:53:40.304Z,80.32
2022-11-18T15:56:18.711Z,82.56
2022-11-18T15:59:02.429Z,82.07
2022-11-18T16:01:31.120Z,82.06
2022-11-18T16:03:57.852Z,82.35
2022-11-18T16:06:25.367Z,82.50
2022-11-18T16:08:57.520Z,82.74
2022-11-18T16:11:44.668Z,81.08
2022-11-18T16:14:13.541Z,81.74
2022-11-18T16:16:42.982Z,81.73
2022-11-18T16:19:12.634Z,80.46
2022-11-18T16:21:41.319Z,81.37
2022-11-18T16:24:11.049Z,82.50
2022-11-18T16:26:37.979Z,80.94
2022-11-18T16:29:05.995Z,82.03
2022-11-18T16:31:41.853Z,81.44
2022-11-18T16:34:14.597Z,82.89
2022-11-18T16:36:42.864Z,81.04
2022-11-18T16:39:23.995Z,82.03
2022-11-18T16:41:51.944Z,81.52
2022-11-18T16:44:18.586Z,81.75
2022-11-18T16:46:50.290Z,82.16
2022-11-18T16:49:19.496Z,82.20
2022-11-18T16:51:48.001Z,81.27
2022-11-18T16:54:26.206Z,81.41
2022-11-18T16:56:54.862Z,81.86
2022-11-18T16:59:26.438Z,81.88
2022-11-18T17:01:54.545Z,81.98
2022-11-18T17:04:21.725Z,81.73
2022-11-18T17:06:48.505Z,81.16
2022-11-18T17:09:18.159Z,80.13
2022-11-18T17:11:45.027Z,80.81
2022-11-18T17:14:12.299Z,82.04
2022-11-18T17:16:39.294Z,80.58
2022-11-18T17:19:11.698Z,81.13
2022-11-18T17:21:38.756Z,79.63
2022-11-18T17:24:05.725Z,80.77
2022-11-18T17:26:32.137Z,79.90
2022-11-18T17:28:58.572Z,80.34
2022-11-18T17:31:25.576Z,80.20
2022-11-18T17:33:53.783Z,79.15
2022-11-18T17:36:23.244Z,80.48
2022-11-18T17:38:51.582Z,80.01
2022-11-18T17:41:38.642Z,80.70
2022-11-18T17:44:07.398Z,81.41
2022-11-18T17:46:38.027Z,80.82
2022-11-18T17:49:15.687Z,80.49
2022-11-18T17:51:42.475Z,80.29
2022-11-18T17:54:10.202Z,80.80
2022-11-18T17:56:36.780Z,81.65
2022-11-18T17:59:03.423Z,81.29
2022-11-18T18:01:29.999Z,81.42
2022-11-18T18:03:56.657Z,81.04
2022-11-18T18:06:23.269Z,81.07
2022-11-18T18:08:49.882Z,80.82
2022-11-18T18:11:18.571Z,80.95
2022-11-18T18:14:03.818Z,80.45
2022-11-18T18:16:31.945Z,80.57
2022-11-18T18:18:59.638Z,79.88
2022-11-18T18:21:26.761Z,80.33
2022-11-18T18:23:53.252Z,79.91
2022-11-18T18:26:19.946Z,78.79
2022-11-18T18:28:47.181Z,79.88
2022-11-18T18:31:15.406Z,81.02
2022-11-18T18:33:45.065Z,80.29
2022-11-18T18:36:14.552Z,80.38
2022-11-18T18:38:42.168Z,80.59
2022-11-18T18:41:18.119Z,80.46
2022-11-18T18:43:45.993Z,80.59
2022-11-18T18:46:30.896Z,80.66
2022-11-18T18:49:20.476Z,80.45
2022-11-18T18:51:50.555Z,79.55
2022-11-18T18:54:19.251Z,79.87
2022-11-18T18:56:46.157Z,81.15
2022-11-18T18:59:12.666Z,80.50
2022-11-18T19:01:39.396Z,79.34
2022-11-18T19:04:07.502Z,80.75
2022-11-18T19:09:23.200Z,80.45
2022-11-18T19:12:09.443Z,79.43
2022-11-18T19:14:35.937Z,77.95
2022-11-18T19:17:09.456Z,79.77
2022-11-18T19:19:55.573Z,78.17
2022-11-18T19:22:22.146Z,79.41
2022-11-18T19:24:50.466Z,79.88
2022-11-18T19:27:18.694Z,80.98
2022-11-18T19:29:45.296Z,81.56
2022-11-18T19:32:11.781Z,81.31
2022-11-18T19:34:38.294Z,81.14
2022-11-18T19:37:04.778Z,80.92
2022-11-18T19:39:31.333Z,81.79
2022-11-18T19:41:57.813Z,82.93
2022-11-18T19:44:24.270Z,81.50
2022-11-18T19:46:50.737Z,82.00
2022-11-18T19:49:17.502Z,81.85
2022-11-18T19:51:44.072Z,81.53
2022-11-18T19:54:10.530Z,80.77
2022-11-18T19:56:36.960Z,80.88
2022-11-18T19:59:03.418Z,79.81
2022-11-18T20:01:30.082Z,79.05
2022-11-18T20:03:58.676Z,78.65
2022-11-18T20:06:26.528Z,79.34
2022-11-18T20:08:53.979Z,80.38
2022-11-18T20:11:21.228Z,81.21
2022-11-18T20:13:48.007Z,81.83
2022-11-18T20:16:19.219Z,81.89
2022-11-18T20:18:50.262Z,80.76
2022-11-18T20:21:21.673Z,80.54
2022-11-18T20:23:49.959Z,79.60
2022-11-18T20:26:18.837Z,78.17
2022-11-18T20:28:46.894Z,78.25
2022-11-18T20:31:15.776Z,80.63
2022-11-18T20:33:48.417Z,80.32
2022-11-18T20:36:22.244Z,80.81
2022-11-18T20:38:51.247Z,81.20
2022-11-18T20:41:18.522Z,80.64
2022-11-18T20:43:45.494Z,80.91
2022-11-18T20:46:14.693Z,80.06
2022-11-18T20:48:45.446Z,78.64
2022-11-18T20:51:14.163Z,78.15
2022-11-18T20:53:42.374Z,77.35
2022-11-18T20:56:10.228Z,78.95
2022-11-18T20:58:36.723Z,80.16
2022-11-18T21:01:15.299Z,79.45
2022-11-18T21:03:43.398Z,79.56
2022-11-18T21:06:14.302Z,78.90
2022-11-18T21:08:42.039Z,78.83
2022-11-18T21:11:10.885Z,80.19
2022-11-18T21:13:56.666Z,80.96
2022-11-18T21:16:23.998Z,81.85
2022-11-18T21:18:50.637Z,80.03
2022-11-18T21:21:35.732Z,81.15
2022-11-18T21:24:03.024Z,80.33
2022-11-18T21:26:31.524Z,79.71
2022-11-18T21:29:00.173Z,80.37
2022-11-18T21:31:27.613Z,81.58
2022-11-18T21:33:54.496Z,81.44
2022-11-18T21:36:21.855Z,81.89
2022-11-18T21:38:48.338Z,82.85
2022-11-18T21:41:15.318Z,81.76
2022-11-18T21:46:29.291Z,80.74
2022-11-18T21:48:59.917Z,81.42
2022-11-18T21:51:27.154Z,81.52
2022-11-18T21:53:53.978Z,82.77
2022-11-18T21:56:25.199Z,83.05
2022-11-18T21:58:52.717Z,82.66
2022-11-18T22:01:24.278Z,81.72
2022-11-18T22:03:55.604Z,81.22
2022-11-18T22:06:24.533Z,81.41
2022-11-18T22:08:52.088Z,81.91
2022-11-18T22:11:20.535Z,81.77
2022-11-18T22:13:47.149Z,82.10
2022-11-18T22:16:18.466Z,82.03
2022-11-18T22:18:50.358Z,81.55
2022-11-18T22:21:21.102Z,81.19
2022-11-18T22:23:48.097Z,81.15
2022-11-18T22:26:17.049Z,82.34
2022-11-18T22:28:44.425Z,82.20
2022-11-18T22:31:12.708Z,82.32
2022-11-18T22:33:39.743Z,81.75
2022-11-18T22:36:08.815Z,81.76
2022-11-18T22:38:35.429Z,81.67
2022-11-18T22:41:04.530Z,80.97
2022-11-18T22:43:32.148Z,81.18
2022-11-18T22:46:03.444Z,80.47
2022-11-18T22:48:30.576Z,81.19
2022-11-18T22:51:02.467Z,81.47
2022-11-18T22:53:29.570Z,81.53
2022-11-18T22:56:01.913Z,81.96
2022-11-18T22:58:29.065Z,82.00
2022-11-18T23:00:58.926Z,81.85
2022-11-18T23:03:25.349Z,81.86
2022-11-18T23:05:51.789Z,81.70
2022-11-18T23:08:18.293Z,81.75
2022-11-18T23:10:44.799Z,82.37
2022-11-18T23:13:30.026Z,82.64
2022-11-18T23:15:58.912Z,81.65
2022-11-18T23:18:26.123Z,81.94
2022-11-18T23:20:58.331Z,81.61
2022-11-18T23:23:24.766Z,79.65
2022-11-18T23:25:51.214Z,79.59
2022-11-18T23:28:17.678Z,79.71
2022-11-18T23:30:44.158Z,78.61
2022-11-18T23:33:10.670Z,78.41
2022-11-18T23:35:37.129Z,78.52
2022-11-18T23:38:03.555Z,78.93
2022-11-18T23:40:31.015Z,80.22
2022-11-18T23:42:57.429Z,81.11
2022-11-18T23:45:23.874Z,80.02
2022-11-18T23:47:50.300Z,80.51
2022-11-18T23:50:16.780Z,80.26
2022-11-18T23:52:43.206Z,80.27
2022-11-18T23:55:09.846Z,80.38
2022-11-18T23:57:36.288Z,78.99
